Terminal Aerodrome Forecast
Issued by NWS Detroit/Pontiac, MI

Home | Current Version | Previous Version | Text Only | Print | Product List | Glossary On
Versions: 1 2 3 4 5 6 7 8 9 10 11 12 13 14 15 16 17
000
FTUS43 KDTX 021947 AAB
TAFFNT
TAF AMD
KFNT 021947Z 0220/0318 29010KT P6SM SKC
     FM030200 VRB04KT P6SM BKN150
     FM031500 14012KT 4SM -SN BKN035 OVC070
     FM031600 14012KT 1SM -SN BR BKN015=

USA.gov is the U.S. government's official web portal to all federal, state and local government web resources and services.